createdAt,value
2019-05-26T00:01:33.930Z,84.30
2019-05-26T00:04:02.951Z,84.90
2019-05-26T00:06:31.939Z,85.10
2019-05-26T00:09:00.923Z,85.20
2019-05-26T00:11:30.011Z,85.20
2019-05-26T00:13:58.952Z,85.10
2019-05-26T00:16:28.017Z,85.30
2019-05-26T00:18:57.074Z,86.50
2019-05-26T00:21:26.157Z,86.70
2019-05-26T00:23:56.301Z,87.00
2019-05-26T00:26:25.608Z,86.70
2019-05-26T00:28:54.767Z,86.70
2019-05-26T00:31:23.752Z,86.50
2019-05-26T00:33:52.884Z,86.70
2019-05-26T00:36:21.897Z,86.70
2019-05-26T00:38:51.067Z,86.60
2019-05-26T00:41:20.213Z,87.20
2019-05-26T00:43:49.172Z,87.30
2019-05-26T00:46:18.320Z,87.00
2019-05-26T00:48:47.870Z,86.90
2019-05-26T00:51:16.946Z,86.70
2019-05-26T00:53:46.022Z,87.00
2019-05-26T00:56:15.124Z,86.70
2019-05-26T00:58:44.167Z,86.60
2019-05-26T01:01:13.257Z,86.50
2019-05-26T01:03:42.357Z,86.60
2019-05-26T01:06:11.366Z,86.50
2019-05-26T01:08:40.359Z,86.80
2019-05-26T01:11:09.454Z,87.10
2019-05-26T01:13:38.506Z,87.00
2019-05-26T01:16:07.582Z,86.80
2019-05-26T01:18:36.756Z,86.50
2019-05-26T01:21:05.890Z,86.50
2019-05-26T01:23:34.901Z,86.60
2019-05-26T01:26:04.053Z,86.80
2019-05-26T01:28:33.122Z,86.60
2019-05-26T01:31:02.264Z,86.60
2019-05-26T01:33:31.409Z,86.70
2019-05-26T01:36:01.050Z,87.00
2019-05-26T01:38:30.694Z,86.50
2019-05-26T01:40:59.795Z,86.60
2019-05-26T01:43:28.782Z,86.40
2019-05-26T01:45:57.858Z,86.40
2019-05-26T01:48:26.773Z,86.50
2019-05-26T01:50:55.716Z,86.70
2019-05-26T01:53:24.728Z,87.00
2019-05-26T01:55:53.865Z,86.80
2019-05-26T01:58:22.933Z,86.70
2019-05-26T02:00:51.991Z,86.60
2019-05-26T02:03:21.146Z,86.30
2019-05-26T02:05:50.303Z,86.30
2019-05-26T02:08:19.408Z,86.20
2019-05-26T02:10:48.459Z,86.10
2019-05-26T02:13:17.472Z,86.10
2019-05-26T02:15:46.636Z,86.40
2019-05-26T02:18:15.725Z,86.40
2019-05-26T02:20:44.804Z,86.70
2019-05-26T02:23:13.798Z,86.60
2019-05-26T02:25:42.877Z,86.30
2019-05-26T02:28:11.854Z,86.20
2019-05-26T02:30:40.941Z,86.30
2019-05-26T02:33:10.022Z,86.10
2019-05-26T02:35:39.139Z,86.10
2019-05-26T02:38:08.127Z,86.00
2019-05-26T02:40:37.198Z,86.10
2019-05-26T02:43:06.563Z,86.20
2019-05-26T02:45:35.545Z,86.00
2019-05-26T02:48:04.825Z,85.80
2019-05-26T02:50:33.983Z,85.90
2019-05-26T02:53:02.978Z,85.70
2019-05-26T02:55:32.643Z,85.80
2019-05-26T02:58:01.758Z,85.60
2019-05-26T03:00:41.378Z,85.70
2019-05-26T03:03:11.427Z,85.70
2019-05-26T03:05:43.146Z,86.00
2019-05-26T03:08:12.772Z,86.00
2019-05-26T03:10:41.958Z,85.70
2019-05-26T03:13:14.494Z,85.10
2019-05-26T03:15:44.074Z,85.60
2019-05-26T03:18:13.219Z,85.30
2019-05-26T03:20:42.577Z,85.10
2019-05-26T03:23:11.661Z,84.50
2019-05-26T03:25:40.939Z,84.70
2019-05-26T03:28:10.021Z,85.00
2019-05-26T03:30:39.150Z,84.90
2019-05-26T03:33:08.303Z,84.80
2019-05-26T03:35:37.337Z,84.80
2019-05-26T03:38:06.520Z,84.20
2019-05-26T03:40:35.584Z,84.00
2019-05-26T03:43:04.695Z,83.80
2019-05-26T03:46:20.535Z,84.10
2019-05-26T03:48:50.304Z,83.90
2019-05-26T03:51:19.428Z,83.60
2019-05-26T03:53:48.590Z,83.80
2019-05-26T03:56:17.862Z,83.80
2019-05-26T03:58:46.977Z,84.30
2019-05-26T04:01:16.115Z,83.90
2019-05-26T04:03:45.170Z,84.20
2019-05-26T04:06:14.310Z,84.10
2019-05-26T04:08:43.442Z,84.00
2019-05-26T04:11:12.594Z,84.00
2019-05-26T04:13:41.593Z,83.90
2019-05-26T04:16:10.540Z,83.90
2019-05-26T04:18:39.592Z,83.60
2019-05-26T04:21:08.904Z,83.40
2019-05-26T04:23:37.968Z,83.40
2019-05-26T04:26:07.167Z,83.20
2019-05-26T04:28:36.180Z,83.10
2019-05-26T04:31:05.315Z,83.20
2019-05-26T04:33:34.233Z,83.30
2019-05-26T04:36:03.301Z,83.00
2019-05-26T04:38:32.475Z,83.50
2019-05-26T04:41:01.469Z,83.60
2019-05-26T04:43:30.493Z,83.20
2019-05-26T04:45:59.556Z,83.00
2019-05-26T04:48:28.695Z,82.90
2019-05-26T04:50:57.750Z,82.90
2019-05-26T04:53:26.865Z,82.80
2019-05-26T04:55:55.997Z,82.80
2019-05-26T04:58:25.071Z,82.80
2019-05-26T05:00:54.100Z,82.50
2019-05-26T05:03:23.171Z,82.70
2019-05-26T05:05:52.364Z,82.90
2019-05-26T05:08:21.360Z,82.70
2019-05-26T05:10:50.438Z,82.60
2019-05-26T05:13:19.621Z,82.50
2019-05-26T05:15:48.809Z,82.10
2019-05-26T05:18:17.809Z,82.40
2019-05-26T05:20:46.896Z,82.30
2019-05-26T05:23:15.816Z,82.50
2019-05-26T05:25:44.810Z,82.20
2019-05-26T05:28:13.966Z,82.50
2019-05-26T05:30:43.107Z,82.80
2019-05-26T05:33:12.110Z,82.70
2019-05-26T05:35:41.127Z,82.70
2019-05-26T05:38:10.073Z,82.40
2019-05-26T05:40:39.083Z,82.50
2019-05-26T05:43:08.108Z,82.10
2019-05-26T05:45:37.157Z,82.10
2019-05-26T05:48:06.235Z,82.10
2019-05-26T05:50:38.904Z,81.60
2019-05-26T05:53:06.042Z,81.70
2019-05-26T05:55:35.202Z,81.60
2019-05-26T05:58:04.267Z,81.70
2019-05-26T06:00:33.327Z,81.60
2019-05-26T06:03:02.321Z,82.10
2019-05-26T06:05:32.921Z,82.00
2019-05-26T06:08:02.000Z,81.00
2019-05-26T06:10:31.097Z,81.70
2019-05-26T06:13:00.120Z,81.80
2019-05-26T06:15:29.279Z,81.00
2019-05-26T06:17:58.449Z,81.00
2019-05-26T06:20:27.482Z,81.30
2019-05-26T06:22:56.532Z,81.00
2019-05-26T06:25:25.679Z,81.10
2019-05-26T06:27:54.694Z,81.20
2019-05-26T06:30:24.083Z,81.20
2019-05-26T06:32:53.217Z,81.40
2019-05-26T06:35:22.286Z,81.70
2019-05-26T06:37:51.369Z,81.10
2019-05-26T06:40:20.678Z,81.50
2019-05-26T06:42:49.726Z,81.50
2019-05-26T06:45:19.338Z,81.10
2019-05-26T06:47:48.401Z,81.30
2019-05-26T06:50:17.695Z,81.40
2019-05-26T06:52:46.693Z,81.20
2019-05-26T06:55:15.931Z,81.10
2019-05-26T06:57:44.929Z,80.30
2019-05-26T07:00:14.012Z,80.80
2019-05-26T07:02:43.090Z,80.50
2019-05-26T07:05:12.228Z,79.20
2019-05-26T07:07:41.258Z,80.20
2019-05-26T07:10:10.813Z,80.10
2019-05-26T07:12:39.960Z,80.00
2019-05-26T07:15:09.824Z,80.00
2019-05-26T07:17:38.886Z,79.80
2019-05-26T07:20:09.436Z,79.60
2019-05-26T07:22:38.600Z,79.60
2019-05-26T07:25:08.094Z,79.50
2019-05-26T07:27:37.151Z,79.30
2019-05-26T07:30:07.270Z,79.10
2019-05-26T07:32:36.352Z,79.10
2019-05-26T07:35:06.163Z,78.70
2019-05-26T07:37:35.253Z,78.90
2019-05-26T07:40:04.596Z,79.30
2019-05-26T07:42:33.622Z,78.90
2019-05-26T07:45:02.748Z,78.70
2019-05-26T07:47:31.919Z,78.80
2019-05-26T07:50:00.978Z,78.70
2019-05-26T07:52:29.895Z,77.90
2019-05-26T07:54:58.959Z,77.60
2019-05-26T07:57:28.003Z,77.80
2019-05-26T07:59:56.933Z,78.30
2019-05-26T08:02:25.994Z,77.40
2019-05-26T08:04:54.981Z,77.00
2019-05-26T08:07:24.067Z,77.10
2019-05-26T08:09:53.016Z,77.50
2019-05-26T08:12:26.154Z,76.40
2019-05-26T08:14:52.841Z,76.70
2019-05-26T08:17:21.852Z,76.90
2019-05-26T08:19:50.889Z,76.90
2019-05-26T08:22:19.915Z,75.60
2019-05-26T08:24:48.896Z,75.80
2019-05-26T08:27:18.044Z,74.50
2019-05-26T08:29:47.192Z,75.40
2019-05-26T08:32:16.204Z,74.50
2019-05-26T08:34:45.271Z,74.70
2019-05-26T08:37:14.356Z,76.90
2019-05-26T08:39:43.495Z,74.60
2019-05-26T08:42:26.250Z,74.80
2019-05-26T08:44:43.281Z,74.80
2019-05-26T08:47:12.367Z,74.60
2019-05-26T08:49:41.341Z,74.60
2019-05-26T08:52:10.328Z,75.10
2019-05-26T08:54:39.393Z,75.40
2019-05-26T08:57:08.466Z,75.30
2019-05-26T08:59:37.447Z,75.10
2019-05-26T09:02:06.481Z,75.00
2019-05-26T09:04:35.491Z,74.40
2019-05-26T09:07:04.567Z,75.00
2019-05-26T09:09:33.682Z,75.60
2019-05-26T09:12:02.756Z,74.10
2019-05-26T09:14:31.754Z,73.10
2019-05-26T09:17:00.708Z,73.60
2019-05-26T09:19:29.772Z,75.10
2019-05-26T09:21:58.678Z,75.80
2019-05-26T09:24:27.616Z,76.80
2019-05-26T09:26:56.783Z,76.60
2019-05-26T09:29:25.815Z,76.80
2019-05-26T09:31:54.902Z,75.70
2019-05-26T09:34:23.963Z,75.30
2019-05-26T09:36:53.076Z,75.30
2019-05-26T09:39:22.123Z,74.20
2019-05-26T09:41:51.140Z,72.50
2019-05-26T09:44:20.238Z,73.70
2019-05-26T09:46:49.150Z,73.50
2019-05-26T09:49:18.314Z,74.20
2019-05-26T09:51:47.380Z,70.80
2019-05-26T09:54:16.449Z,70.70
2019-05-26T09:56:45.460Z,71.60
2019-05-26T09:59:14.598Z,72.30
2019-05-26T10:01:43.632Z,72.60
2019-05-26T10:04:12.636Z,72.00
2019-05-26T10:06:41.812Z,72.40
2019-05-26T10:09:11.002Z,71.60
2019-05-26T10:11:40.132Z,69.40
2019-05-26T10:14:09.328Z,71.50
2019-05-26T10:16:38.333Z,70.10
2019-05-26T10:19:07.475Z,70.40
2019-05-26T10:21:36.549Z,69.90
2019-05-26T10:24:05.701Z,67.30
2019-05-26T10:26:34.787Z,69.30
2019-05-26T10:29:04.027Z,67.20
2019-05-26T10:31:33.082Z,66.20
2019-05-26T10:34:02.148Z,66.90
2019-05-26T10:36:31.187Z,69.10
2019-05-26T10:39:00.401Z,67.40
2019-05-26T10:41:29.446Z,65.20
2019-05-26T10:43:58.437Z,65.60
2019-05-26T10:46:27.457Z,65.60
2019-05-26T10:48:56.502Z,63.40
2019-05-26T10:51:25.510Z,65.60
2019-05-26T10:53:54.597Z,68.10
2019-05-26T10:56:23.758Z,65.30
2019-05-26T10:58:52.772Z,67.50
2019-05-26T11:01:21.842Z,65.80
2019-05-26T11:03:50.878Z,67.90
2019-05-26T11:06:19.996Z,65.20
2019-05-26T11:08:48.991Z,65.70
2019-05-26T11:11:18.165Z,65.10
2019-05-26T11:14:01.567Z,66.00
2019-05-26T11:16:17.896Z,66.80
2019-05-26T11:18:46.958Z,67.20
2019-05-26T11:21:16.038Z,68.70
2019-05-26T11:23:45.063Z,63.90
2019-05-26T11:26:14.054Z,64.10
2019-05-26T11:28:43.100Z,63.00
2019-05-26T11:31:12.247Z,62.70
2019-05-26T11:33:41.267Z,62.30
2019-05-26T11:36:10.437Z,62.60
2019-05-26T11:38:39.443Z,67.40
2019-05-26T11:41:08.523Z,62.40
2019-05-26T11:43:37.597Z,61.90
2019-05-26T11:46:06.676Z,63.40
2019-05-26T11:48:38.994Z,61.90
2019-05-26T11:51:06.523Z,60.20
2019-05-26T11:53:35.590Z,58.40
2019-05-26T11:56:04.691Z,59.80
2019-05-26T11:58:33.692Z,59.90
2019-05-26T12:01:02.765Z,60.80
2019-05-26T12:03:31.756Z,61.10
2019-05-26T12:06:00.701Z,60.80
2019-05-26T12:08:29.706Z,59.90
2019-05-26T12:10:58.788Z,61.10
2019-05-26T12:13:27.924Z,60.90
2019-05-26T12:15:57.039Z,61.50
2019-05-26T12:18:26.131Z,61.50
2019-05-26T12:20:55.182Z,62.00
2019-05-26T12:23:24.255Z,59.90
2019-05-26T12:25:53.270Z,59.40
2019-05-26T12:28:22.183Z,60.30
2019-05-26T12:30:51.179Z,58.10
2019-05-26T12:33:20.253Z,56.40
2019-05-26T12:35:49.331Z,57.20
2019-05-26T12:38:18.469Z,57.90
2019-05-26T12:40:47.634Z,58.50
2019-05-26T12:43:16.695Z,60.50
2019-05-26T12:45:45.761Z,57.80
2019-05-26T12:48:14.848Z,57.40
2019-05-26T12:50:44.000Z,56.40
2019-05-26T12:53:13.139Z,56.20
2019-05-26T12:55:42.236Z,58.40
2019-05-26T12:58:11.364Z,57.00
2019-05-26T13:00:48.912Z,58.60
2019-05-26T13:03:11.095Z,58.70
2019-05-26T13:05:40.161Z,58.50
2019-05-26T13:08:09.214Z,58.00
2019-05-26T13:10:38.367Z,56.80
2019-05-26T13:13:07.434Z,56.20
2019-05-26T13:15:36.501Z,58.00
2019-05-26T13:18:05.732Z,56.10
2019-05-26T13:20:34.857Z,56.10
2019-05-26T13:23:03.845Z,56.00
2019-05-26T13:25:32.889Z,54.80
2019-05-26T13:28:02.033Z,55.10
2019-05-26T13:30:31.466Z,56.50
2019-05-26T13:33:00.530Z,56.10
2019-05-26T13:35:29.548Z,58.30
2019-05-26T13:37:58.647Z,58.20
2019-05-26T13:40:29.629Z,57.30
2019-05-26T13:42:58.487Z,56.40
2019-05-26T13:45:27.567Z,55.50
2019-05-26T13:47:56.540Z,54.20
2019-05-26T13:50:25.990Z,54.00
2019-05-26T13:52:55.054Z,57.70
2019-05-26T13:55:24.145Z,55.80
2019-05-26T13:57:53.276Z,55.10
2019-05-26T14:00:23.823Z,53.50
2019-05-26T14:02:52.911Z,51.00
2019-05-26T14:05:22.156Z,51.70
2019-05-26T14:07:51.157Z,50.70
2019-05-26T14:10:33.799Z,51.20
2019-05-26T14:13:03.282Z,53.30
2019-05-26T14:15:38.092Z,50.20
2019-05-26T14:18:03.790Z,50.30
2019-05-26T14:20:37.837Z,49.80
2019-05-26T14:23:08.045Z,48.70
2019-05-26T14:25:37.177Z,48.00
2019-05-26T14:28:07.323Z,47.70
2019-05-26T14:30:36.484Z,48.60
2019-05-26T14:33:05.945Z,49.90
2019-05-26T14:35:34.936Z,46.30
2019-05-26T14:38:04.007Z,45.50
2019-05-26T14:40:33.224Z,46.10
2019-05-26T14:43:02.424Z,43.60
2019-05-26T14:45:31.397Z,42.80
2019-05-26T14:48:00.502Z,42.10
2019-05-26T14:50:29.563Z,43.30
2019-05-26T14:52:58.666Z,42.50
2019-05-26T14:55:27.671Z,40.20
2019-05-26T14:57:56.827Z,39.00
2019-05-26T15:00:26.379Z,42.00
2019-05-26T15:02:55.294Z,39.50
2019-05-26T15:05:24.316Z,38.50
2019-05-26T15:07:53.450Z,37.50
2019-05-26T15:10:22.814Z,37.50
2019-05-26T15:12:51.996Z,36.80
2019-05-26T15:15:21.240Z,37.20
2019-05-26T15:17:50.248Z,35.80
2019-05-26T15:20:19.517Z,36.30
2019-05-26T15:22:48.634Z,35.90
2019-05-26T15:25:17.746Z,37.10
2019-05-26T15:27:46.864Z,35.70
2019-05-26T15:30:16.590Z,37.10
2019-05-26T15:32:45.692Z,37.70
2019-05-26T15:35:14.833Z,35.80
2019-05-26T15:37:43.899Z,37.00
2019-05-26T15:40:13.983Z,36.90
2019-05-26T15:42:43.195Z,36.10
2019-05-26T15:45:12.455Z,35.70
2019-05-26T15:47:41.455Z,36.50
2019-05-26T15:50:13.734Z,36.60
2019-05-26T15:52:43.020Z,37.70
2019-05-26T15:55:12.320Z,36.80
2019-05-26T15:57:41.314Z,37.10
2019-05-26T16:00:10.980Z,36.60
2019-05-26T16:02:40.083Z,37.50
2019-05-26T16:05:09.765Z,38.20
2019-05-26T16:07:38.817Z,37.50
2019-05-26T16:10:08.615Z,37.50
2019-05-26T16:12:37.778Z,37.60
2019-05-26T16:15:07.142Z,38.10
2019-05-26T16:17:38.762Z,39.10
2019-05-26T16:20:07.331Z,38.80
2019-05-26T16:22:36.491Z,38.50
2019-05-26T16:25:06.127Z,38.40
2019-05-26T16:27:35.121Z,38.60
2019-05-26T16:30:05.772Z,39.80
2019-05-26T16:32:34.830Z,39.30
2019-05-26T16:35:04.104Z,39.90
2019-05-26T16:37:33.186Z,40.00
2019-05-26T16:40:02.247Z,40.10
2019-05-26T16:42:31.274Z,40.90
2019-05-26T16:45:00.359Z,40.20
2019-05-26T16:47:29.369Z,40.90
2019-05-26T16:49:58.375Z,41.40
2019-05-26T16:52:27.435Z,41.90
2019-05-26T16:54:56.508Z,42.00
2019-05-26T16:57:25.579Z,42.30
2019-05-26T16:59:54.626Z,43.00
2019-05-26T17:02:23.740Z,42.10
2019-05-26T17:04:52.903Z,42.60
2019-05-26T17:07:21.951Z,43.20
2019-05-26T17:09:50.998Z,43.00
2019-05-26T17:12:20.143Z,43.60
2019-05-26T17:14:49.243Z,42.80
2019-05-26T17:17:18.229Z,43.20
2019-05-26T17:19:47.298Z,43.30
2019-05-26T17:22:16.363Z,43.50
2019-05-26T17:24:45.345Z,44.20
2019-05-26T17:27:14.487Z,44.50
2019-05-26T17:29:43.577Z,43.90
2019-05-26T17:32:12.659Z,44.10
2019-05-26T17:34:41.743Z,44.30
2019-05-26T17:37:10.803Z,45.00
2019-05-26T17:39:39.959Z,45.10
2019-05-26T17:42:09.125Z,46.00
2019-05-26T17:44:38.068Z,45.50
2019-05-26T17:47:07.070Z,46.30
2019-05-26T17:49:36.165Z,46.00
2019-05-26T17:52:05.385Z,46.10
2019-05-26T17:54:34.528Z,47.00
2019-05-26T17:57:03.595Z,47.70
2019-05-26T17:59:32.659Z,47.90
2019-05-26T18:02:01.808Z,48.00
2019-05-26T18:04:30.920Z,48.30
2019-05-26T18:07:00.080Z,48.10
2019-05-26T18:09:43.318Z,48.50
2019-05-26T18:12:00.063Z,48.60
2019-05-26T18:14:29.064Z,49.20
2019-05-26T18:16:58.129Z,49.30
2019-05-26T18:19:29.658Z,49.80
2019-05-26T18:21:57.994Z,50.20
2019-05-26T18:24:27.055Z,50.60
2019-05-26T18:26:56.076Z,51.00
2019-05-26T18:29:25.157Z,51.50
2019-05-26T18:31:54.345Z,51.90
2019-05-26T18:34:23.398Z,52.10
2019-05-26T18:36:52.594Z,52.50
2019-05-26T18:39:21.641Z,52.50
2019-05-26T18:41:50.726Z,52.90
2019-05-26T18:44:19.945Z,53.10
2019-05-26T18:46:49.029Z,53.60
2019-05-26T18:49:18.167Z,53.70
2019-05-26T18:51:47.378Z,54.20
2019-05-26T18:54:16.512Z,54.10
2019-05-26T18:56:45.643Z,54.40
2019-05-26T18:59:14.801Z,54.50
2019-05-26T19:01:43.894Z,54.70
2019-05-26T19:04:13.366Z,55.00
2019-05-26T19:06:42.442Z,55.80
2019-05-26T19:09:11.596Z,56.40
2019-05-26T19:11:40.665Z,56.80
2019-05-26T19:14:09.763Z,57.10
2019-05-26T19:16:38.849Z,57.80
2019-05-26T19:19:07.931Z,58.00
2019-05-26T19:21:37.020Z,57.90
2019-05-26T19:24:06.098Z,58.20
2019-05-26T19:26:35.342Z,58.40
2019-05-26T19:29:04.434Z,58.10
2019-05-26T19:31:33.531Z,58.00
2019-05-26T19:34:02.661Z,57.60
2019-05-26T19:36:31.693Z,57.90
2019-05-26T19:39:00.763Z,58.90
2019-05-26T19:41:29.764Z,59.00
2019-05-26T19:43:58.842Z,59.30
2019-05-26T19:46:28.007Z,59.60
2019-05-26T19:48:57.106Z,59.90
2019-05-26T19:51:26.188Z,60.40
2019-05-26T19:53:55.284Z,60.80
2019-05-26T19:56:24.446Z,61.70
2019-05-26T19:58:53.574Z,62.10
2019-05-26T20:01:22.680Z,62.60
2019-05-26T20:03:51.856Z,63.00
2019-05-26T20:06:21.087Z,63.40
2019-05-26T20:08:50.213Z,63.60
2019-05-26T20:11:19.284Z,63.60
2019-05-26T20:13:48.297Z,63.70
2019-05-26T20:16:17.417Z,64.70
2019-05-26T20:18:46.506Z,64.00
2019-05-26T20:21:15.721Z,64.00
2019-05-26T20:23:44.843Z,64.40
2019-05-26T20:26:13.838Z,64.70
2019-05-26T20:28:42.921Z,64.70
2019-05-26T20:31:12.111Z,64.70
2019-05-26T20:33:41.258Z,65.00
2019-05-26T20:36:10.208Z,65.50
2019-05-26T20:38:39.278Z,65.50
2019-05-26T20:41:08.968Z,66.00
2019-05-26T20:43:37.948Z,66.50
2019-05-26T20:46:07.046Z,66.20
2019-05-26T20:48:35.994Z,66.40
2019-05-26T20:51:05.131Z,66.60
2019-05-26T20:53:34.077Z,66.80
2019-05-26T20:56:03.129Z,67.50
2019-05-26T20:58:32.225Z,67.80
2019-05-26T21:01:01.377Z,67.90
2019-05-26T21:03:30.438Z,68.20
2019-05-26T21:05:59.584Z,68.30
2019-05-26T21:08:29.415Z,68.30
2019-05-26T21:10:58.549Z,68.70
2019-05-26T21:13:27.528Z,68.60
2019-05-26T21:15:56.617Z,68.50
2019-05-26T21:18:25.727Z,68.30
2019-05-26T21:20:54.818Z,67.80
2019-05-26T21:23:23.904Z,67.90
2019-05-26T21:25:53.056Z,68.70
2019-05-26T21:28:21.972Z,68.20
2019-05-26T21:30:51.071Z,68.30
2019-05-26T21:33:20.210Z,68.50
2019-05-26T21:35:49.300Z,68.60
2019-05-26T21:38:18.371Z,68.90
2019-05-26T21:40:47.443Z,68.50
2019-05-26T21:43:16.524Z,68.60
2019-05-26T21:45:45.614Z,68.60
2019-05-26T21:48:14.737Z,68.90
2019-05-26T21:50:43.839Z,68.70
2019-05-26T21:53:12.928Z,68.90
2019-05-26T21:55:42.016Z,69.50
2019-05-26T21:58:11.020Z,69.20
2019-05-26T22:00:44.137Z,69.20
2019-05-26T22:03:13.310Z,69.40
2019-05-26T22:05:42.470Z,68.70
2019-05-26T22:08:11.560Z,68.50
2019-05-26T22:10:40.726Z,68.60
2019-05-26T22:13:09.803Z,68.90
2019-05-26T22:15:38.875Z,68.90
2019-05-26T22:18:08.037Z,69.10
2019-05-26T22:20:37.083Z,69.10
2019-05-26T22:23:06.117Z,69.20
2019-05-26T22:25:35.204Z,69.60
2019-05-26T22:28:04.311Z,69.10
2019-05-26T22:30:33.410Z,69.00
2019-05-26T22:33:02.499Z,69.10
2019-05-26T22:35:31.718Z,69.30
2019-05-26T22:38:00.800Z,69.70
2019-05-26T22:40:29.879Z,69.50
2019-05-26T22:42:58.895Z,69.70
2019-05-26T22:45:27.901Z,69.80
2019-05-26T22:47:57.058Z,69.80
2019-05-26T22:50:26.267Z,69.70
2019-05-26T22:52:55.387Z,70.00
2019-05-26T22:55:24.587Z,70.20
2019-05-26T22:57:53.578Z,70.70
2019-05-26T23:00:22.654Z,69.80
2019-05-26T23:02:51.604Z,70.60
2019-05-26T23:05:20.536Z,72.00
2019-05-26T23:07:49.586Z,70.30
2019-05-26T23:10:18.771Z,71.10
2019-05-26T23:12:47.845Z,70.60
2019-05-26T23:15:16.917Z,70.30
2019-05-26T23:17:46.080Z,71.80
2019-05-26T23:20:15.211Z,71.70
2019-05-26T23:22:44.297Z,71.50
2019-05-26T23:25:13.864Z,71.80
2019-05-26T23:27:42.931Z,71.30
2019-05-26T23:30:12.334Z,71.30
2019-05-26T23:32:41.254Z,71.60
2019-05-26T23:35:10.346Z,71.70
2019-05-26T23:37:39.435Z,72.20
2019-05-26T23:40:08.923Z,72.20
2019-05-26T23:42:38.067Z,72.00
2019-05-26T23:45:07.430Z,71.70
2019-05-26T23:47:36.502Z,71.70
2019-05-26T23:50:05.658Z,71.70
2019-05-26T23:52:34.800Z,71.80
2019-05-26T23:55:04.178Z,71.50
2019-05-26T23:57:33.180Z,71.80
